Time;durP1;ratioP1;P1;durP2;ratioP2;P2;SDS_P1;SDS_P2;PMS_P1;PMS_P2;Temp;Humidity;BMP_temperature;BMP_pressure;BME280_temperature;BME280_humidity;BME280_pressure;Samples;Min_cycle;Max_cycle;Signal;HPM_P1;HPM_P2
2023/10/04 00:01:14;;;;;;;6.88;2.53;;;;;;;;;;5015282;28;19991;-66
2023/10/04 00:03:41;;;;;;;3.47;2.40;;;;;;;;;;5023132;28;20033;-66
2023/10/04 00:06:08;;;;;;;5.57;3.17;;;;;;;;;;5023971;28;20417;-66
2023/10/04 00:08:34;;;;;;;4.35;2.10;;;;;;;;;;5013023;28;20030;-66
2023/10/04 00:11:01;;;;;;;7.32;2.60;;;;;;;;;;5017811;28;20030;-67
2023/10/04 00:13:28;;;;;;;7.00;2.88;;;;;;;;;;5016731;28;20079;-67
2023/10/04 00:15:54;;;;;;;6.40;2.17;;;;;;;;;;5018013;28;20072;-67
2023/10/04 00:18:20;;;;;;;6.30;2.53;;;;;;;;;;5017599;28;20068;-67
2023/10/04 00:20:46;;;;;;;4.10;2.47;;;;;;;;;;5017833;28;20109;-67
2023/10/04 00:23:13;;;;;;;8.65;2.40;;;;;;;;;;5019761;28;20507;-67
2023/10/04 00:25:39;;;;;;;8.00;2.50;;;;;;;;;;5018350;28;20565;-67
2023/10/04 00:28:05;;;;;;;3.65;2.00;;;;;;;;;;5017010;28;20370;-66
2023/10/04 00:30:32;;;;;;;3.28;2.05;;;;;;;;;;5022644;28;20060;-67
2023/10/04 00:32:58;;;;;;;4.50;2.30;;;;;;;;;;5020174;28;20048;-70
2023/10/04 00:35:28;;;;;;;5.55;2.50;;;;;;;;;;5015372;28;20030;-67
2023/10/04 00:37:57;;;;;;;5.03;2.70;;;;;;;;;;5018557;28;20053;-67
2023/10/04 00:40:23;;;;;;;7.72;2.78;;;;;;;;;;5020554;28;20572;-69
2023/10/04 00:42:54;;;;;;;9.27;2.63;;;;;;;;;;5017696;28;20026;-69
2023/10/04 00:45:22;;;;;;;5.43;2.40;;;;;;;;;;5010162;28;20045;-67
2023/10/04 00:47:50;;;;;;;5.82;2.42;;;;;;;;;;5014038;28;20315;-69
2023/10/04 00:50:26;;;;;;;7.07;2.53;;;;;;;;;;5013426;28;20021;-69
2023/10/04 00:52:52;;;;;;;;;;;;;;;;;;5020697;28;21240;-70
2023/10/04 00:55:21;;;;;;;3.42;2.00;;;;;;;;;;5016752;28;20443;-68
2023/10/04 00:57:51;;;;;;;5.35;2.88;;;;;;;;;;5018216;28;20022;-68
2023/10/04 01:00:17;;;;;;;3.97;2.33;;;;;;;;;;5021250;28;20100;-68
2023/10/04 01:02:47;;;;;;;8.32;2.80;;;;;;;;;;5020972;28;20047;-68
2023/10/04 01:05:15;;;;;;;8.65;2.78;;;;;;;;;;5017535;28;20448;-68
2023/10/04 01:07:42;;;;;;;6.45;2.20;;;;;;;;;;5021488;28;20046;-69
2023/10/04 01:10:20;;;;;;;8.77;2.40;;;;;;;;;;5017253;28;20034;-68
2023/10/04 01:12:49;;;;;;;7.75;2.28;;;;;;;;;;5016755;28;20025;-68
2023/10/04 01:15:32;;;;;;;6.65;2.50;;;;;;;;;;5013510;28;20021;-68
2023/10/04 01:17:59;;;;;;;9.00;2.53;;;;;;;;;;5019132;28;20453;-62
2023/10/04 01:20:27;;;;;;;9.38;3.33;;;;;;;;;;5012227;28;20025;-64
2023/10/04 01:23:00;;;;;;;6.07;2.90;;;;;;;;;;5011869;28;20112;-68
2023/10/04 01:25:26;;;;;;;5.03;2.45;;;;;;;;;;5019415;28;20061;-68
2023/10/04 01:27:53;;;;;;;6.18;2.88;;;;;;;;;;5020310;28;20033;-69
2023/10/04 01:30:19;;;;;;;9.70;3.05;;;;;;;;;;5027102;28;20021;-68
2023/10/04 01:32:45;;;;;;;4.97;2.70;;;;;;;;;;5018535;28;20461;-69
2023/10/04 01:35:12;;;;;;;6.10;2.10;;;;;;;;;;5020960;28;20071;-69
2023/10/04 01:37:39;;;;;;;7.15;2.83;;;;;;;;;;5018260;28;21043;-69
2023/10/04 01:40:12;;;;;;;6.35;2.67;;;;;;;;;;5021420;28;20532;-69
2023/10/04 01:42:40;;;;;;;5.55;2.30;;;;;;;;;;5018315;28;20028;-69
2023/10/04 01:45:09;;;;;;;5.60;2.30;;;;;;;;;;5019636;28;20306;-69
2023/10/04 01:47:35;;;;;;;3.85;2.20;;;;;;;;;;5021840;28;20026;-68
2023/10/04 01:50:02;;;;;;;8.68;3.00;;;;;;;;;;5025193;28;20044;-69
2023/10/04 01:52:30;;;;;;;5.53;2.50;;;;;;;;;;5020069;28;20088;-68
2023/10/04 01:54:56;;;;;;;3.50;2.70;;;;;;;;;;5022681;28;20022;-70
2023/10/04 01:57:22;;;;;;;6.68;3.10;;;;;;;;;;5015336;28;20033;-68
2023/10/04 01:59:48;;;;;;;4.90;2.28;;;;;;;;;;5023395;28;20074;-72
2023/10/04 02:02:15;;;;;;;6.43;2.42;;;;;;;;;;5020696;28;20039;-68
2023/10/04 02:04:41;;;;;;;4.13;2.60;;;;;;;;;;5020636;28;20525;-68
2023/10/04 02:07:08;;;;;;;6.00;3.05;;;;;;;;;;5019963;28;20425;-68
2023/10/04 02:09:34;;;;;;;5.53;2.70;;;;;;;;;;5015744;28;20037;-69
2023/10/04 02:12:01;;;;;;;5.53;2.45;;;;;;;;;;5020203;28;20033;-68
2023/10/04 02:14:27;;;;;;;7.65;2.45;;;;;;;;;;5016607;28;20040;-68
2023/10/04 02:16:53;;;;;;;10.45;2.75;;;;;;;;;;5009152;28;20575;-68
2023/10/04 02:19:22;;;;;;;2.63;2.33;;;;;;;;;;5009393;28;20033;-68
2023/10/04 02:21:48;;;;;;;8.68;2.67;;;;;;;;;;5017676;28;20063;-69
2023/10/04 02:24:14;;;;;;;6.35;2.30;;;;;;;;;;5029435;28;20120;-68
2023/10/04 02:26:41;;;;;;;3.55;2.40;;;;;;;;;;5019730;28;20045;-69
2023/10/04 02:29:09;;;;;;;5.43;2.25;;;;;;;;;;5020055;28;20452;-68
2023/10/04 02:31:36;;;;;;;6.63;3.10;;;;;;;;;;5022048;28;20018;-69
2023/10/04 02:34:05;;;;;;;3.65;2.30;;;;;;;;;;5018498;28;20053;-68
2023/10/04 02:36:31;;;;;;;5.88;2.65;;;;;;;;;;5021096;28;20064;-68
2023/10/04 02:38:57;;;;;;;7.93;2.47;;;;;;;;;;5021055;28;20030;-68
2023/10/04 02:41:26;;;;;;;5.93;3.00;;;;;;;;;;5024003;28;20522;-69
2023/10/04 02:43:54;;;;;;;3.20;2.10;;;;;;;;;;5017073;28;20024;-68
2023/10/04 02:46:20;;;;;;;4.95;3.13;;;;;;;;;;5015514;28;20547;-68
2023/10/04 02:48:47;;;;;;;6.70;2.83;;;;;;;;;;5017002;28;20025;-69
2023/10/04 02:51:13;;;;;;;5.90;2.50;;;;;;;;;;5022813;28;20241;-68
2023/10/04 02:53:43;;;;;;;7.63;2.30;;;;;;;;;;5023915;28;20032;-68
2023/10/04 02:56:09;;;;;;;6.45;2.85;;;;;;;;;;5021144;28;20619;-69
2023/10/04 02:58:36;;;;;;;8.38;2.70;;;;;;;;;;5022489;28;20586;-69
2023/10/04 03:01:02;;;;;;;6.30;3.03;;;;;;;;;;5027659;28;20104;-69
2023/10/04 03:03:30;;;;;;;11.32;3.05;;;;;;;;;;5023941;28;20025;-68
2023/10/04 03:05:57;;;;;;;5.95;2.65;;;;;;;;;;5027031;28;20551;-69
2023/10/04 03:08:23;;;;;;;6.38;2.75;;;;;;;;;;5029032;28;20047;-68
2023/10/04 03:10:50;;;;;;;9.88;3.47;;;;;;;;;;5018811;28;20036;-69
2023/10/04 03:13:24;;;;;;;7.95;3.15;;;;;;;;;;5024458;28;20404;-72
2023/10/04 03:15:51;;;;;;;7.80;2.90;;;;;;;;;;5020291;28;20611;-68
2023/10/04 03:18:23;;;;;;;3.80;2.70;;;;;;;;;;5022343;28;20021;-69
2023/10/04 03:23:27;;;;;;;7.57;3.33;;;;;;;;;;5025338;28;20022;-70
2023/10/04 03:25:55;;;;;;;6.45;2.95;;;;;;;;;;5026590;28;20033;-69
2023/10/04 03:28:26;;;;;;;6.07;2.92;;;;;;;;;;5025670;28;20413;-69
2023/10/04 03:30:53;;;;;;;10.80;3.38;;;;;;;;;;5028313;28;20373;-68
2023/10/04 03:33:20;;;;;;;6.03;3.15;;;;;;;;;;5021694;28;20049;-68
2023/10/04 03:35:47;;;;;;;9.30;3.05;;;;;;;;;;5024730;28;20032;-69
2023/10/04 03:38:13;;;;;;;3.10;2.25;;;;;;;;;;5020348;28;20045;-68
2023/10/04 03:40:40;;;;;;;5.40;2.78;;;;;;;;;;5021836;28;20110;-68
2023/10/04 03:43:09;;;;;;;9.75;2.47;;;;;;;;;;5027317;28;20458;-68
2023/10/04 03:45:39;;;;;;;9.80;3.03;;;;;;;;;;5036673;28;20079;-70
2023/10/04 03:48:10;;;;;;;5.05;3.10;;;;;;;;;;5023933;28;20033;-69
2023/10/04 03:50:36;;;;;;;8.50;3.35;;;;;;;;;;5023791;28;20093;-69
2023/10/04 03:53:02;;;;;;;10.88;3.20;;;;;;;;;;5019998;28;20029;-73
2023/10/04 03:55:28;;;;;;;4.85;3.00;;;;;;;;;;5018515;28;20034;-72
2023/10/04 03:57:55;;;;;;;5.13;3.40;;;;;;;;;;5026843;28;20021;-70
2023/10/04 04:00:23;;;;;;;8.43;2.92;;;;;;;;;;5022752;28;20116;-70
2023/10/04 04:02:50;;;;;;;5.40;2.80;;;;;;;;;;5025006;28;20450;-70
2023/10/04 04:05:21;;;;;;;5.10;2.80;;;;;;;;;;5025741;28;20033;-70
2023/10/04 04:07:48;;;;;;;7.82;2.65;;;;;;;;;;5021243;28;20523;-69
2023/10/04 04:10:14;;;;;;;9.02;3.42;;;;;;;;;;5019273;28;20465;-69
2023/10/04 04:12:41;;;;;;;6.25;3.10;;;;;;;;;;5010243;28;20022;-69
2023/10/04 04:15:10;;;;;;;5.70;2.65;;;;;;;;;;5014883;28;20018;-67
2023/10/04 04:17:44;;;;;;;4.70;2.75;;;;;;;;;;5024325;28;20087;-70
2023/10/04 04:20:19;;;;;;;10.57;3.35;;;;;;;;;;5016569;28;21131;-68
2023/10/04 04:22:53;;;;;;;7.82;3.15;;;;;;;;;;5027843;28;20036;-67
2023/10/04 04:25:26;;;;;;;4.28;2.42;;;;;;;;;;5022395;28;20108;-68
2023/10/04 04:27:53;;;;;;;13.05;2.80;;;;;;;;;;5019418;28;20052;-68
2023/10/04 04:30:21;;;;;;;8.23;2.70;;;;;;;;;;5021543;28;20052;-69
2023/10/04 04:32:47;;;;;;;6.65;2.83;;;;;;;;;;5024790;28;20056;-69
2023/10/04 04:35:15;;;;;;;9.05;3.75;;;;;;;;;;5022006;28;20025;-69
2023/10/04 04:37:42;;;;;;;8.27;2.97;;;;;;;;;;5018712;28;20073;-69
2023/10/04 04:40:09;;;;;;;7.43;2.80;;;;;;;;;;5022929;28;20038;-68
2023/10/04 04:42:37;;;;;;;8.23;3.10;;;;;;;;;;5024851;28;20033;-69
2023/10/04 04:45:19;;;;;;;10.05;3.90;;;;;;;;;;5031901;28;20022;-69
2023/10/04 04:47:46;;;;;;;7.00;2.80;;;;;;;;;;5025356;28;20073;-68
2023/10/04 04:50:15;;;;;;;9.68;3.35;;;;;;;;;;5024576;28;20029;-68
2023/10/04 04:52:42;;;;;;;5.65;2.75;;;;;;;;;;5022981;28;20169;-68
2023/10/04 04:55:10;;;;;;;7.05;3.22;;;;;;;;;;5026536;28;20366;-69
2023/10/04 04:57:37;;;;;;;7.47;2.53;;;;;;;;;;5022486;28;20032;-68
2023/10/04 05:00:31;;;;;;;10.30;3.08;;;;;;;;;;5024093;28;20044;-69
2023/10/04 05:02:49;;;;;;;7.22;2.83;;;;;;;;;;5024310;28;20030;-69
2023/10/04 05:05:15;;;;;;;6.22;2.70;;;;;;;;;;5022318;28;20128;-69
2023/10/04 05:07:42;;;;;;;8.80;3.42;;;;;;;;;;5019674;28;20025;-68
2023/10/04 05:10:10;;;;;;;3.85;2.92;;;;;;;;;;5018824;28;20029;-69
2023/10/04 05:12:37;;;;;;;6.40;2.90;;;;;;;;;;5021036;28;20130;-69
2023/10/04 05:15:21;;;;;;;7.38;2.90;;;;;;;;;;5021162;28;20393;-69
2023/10/04 05:17:50;;;;;;;5.53;3.00;;;;;;;;;;5021172;28;20075;-69
2023/10/04 05:20:21;;;;;;;11.23;3.65;;;;;;;;;;5011436;28;20057;-68
2023/10/04 05:22:50;;;;;;;8.63;3.22;;;;;;;;;;5023480;28;20108;-68
2023/10/04 05:25:17;;;;;;;7.20;3.10;;;;;;;;;;5023422;28;20017;-69
2023/10/04 05:27:45;;;;;;;4.35;2.70;;;;;;;;;;5023579;28;20072;-69
2023/10/04 05:30:14;;;;;;;5.72;2.75;;;;;;;;;;5024177;28;20091;-69
2023/10/04 05:32:40;;;;;;;5.75;2.85;;;;;;;;;;5024970;28;20018;-69
2023/10/04 05:35:07;;;;;;;9.20;3.22;;;;;;;;;;5035213;28;20022;-69
2023/10/04 05:37:33;;;;;;;7.13;3.38;;;;;;;;;;5023581;28;20341;-69
2023/10/04 05:39:59;;;;;;;7.82;3.20;;;;;;;;;;5026789;28;20115;-69
2023/10/04 05:42:25;;;;;;;6.22;2.63;;;;;;;;;;5014949;28;20029;-69
2023/10/04 05:44:52;;;;;;;6.05;3.28;;;;;;;;;;5015779;28;20056;-68
2023/10/04 05:47:18;;;;;;;7.38;2.50;;;;;;;;;;5017183;28;20075;-69
2023/10/04 05:49:44;;;;;;;7.53;3.15;;;;;;;;;;5031043;28;20036;-70
2023/10/04 05:52:10;;;;;;;11.77;3.53;;;;;;;;;;5014598;28;20034;-69
2023/10/04 05:54:36;;;;;;;7.38;2.88;;;;;;;;;;5025296;28;20389;-68
2023/10/04 05:57:02;;;;;;;4.85;3.38;;;;;;;;;;5013836;28;20288;-68
2023/10/04 05:59:31;;;;;;;8.98;3.33;;;;;;;;;;5020465;28;20026;-68
2023/10/04 06:01:57;;;;;;;5.93;2.97;;;;;;;;;;5018296;28;20540;-69
2023/10/04 06:04:24;;;;;;;7.82;3.10;;;;;;;;;;5023699;28;20104;-68
2023/10/04 06:06:50;;;;;;;8.95;3.33;;;;;;;;;;5020139;28;20033;-68
2023/10/04 06:09:28;;;;;;;8.73;2.70;;;;;;;;;;5019437;28;20061;-68
2023/10/04 06:11:54;;;;;;;6.20;2.97;;;;;;;;;;5017025;28;20489;-68
2023/10/04 06:14:20;;;;;;;10.05;4.28;;;;;;;;;;5020049;28;20040;-68
2023/10/04 06:16:50;;;;;;;7.13;3.22;;;;;;;;;;5016420;28;20127;-68
2023/10/04 06:19:19;;;;;;;6.18;3.40;;;;;;;;;;5018299;28;20061;-68
2023/10/04 06:21:49;;;;;;;8.30;3.75;;;;;;;;;;5015744;28;20021;-68
2023/10/04 06:24:15;;;;;;;11.57;3.58;;;;;;;;;;5022862;28;20041;-69
2023/10/04 06:26:41;;;;;;;6.13;2.88;;;;;;;;;;5016901;28;20492;-69
2023/10/04 06:29:07;;;;;;;5.85;3.05;;;;;;;;;;5018681;28;20040;-68
2023/10/04 06:31:34;;;;;;;7.47;3.00;;;;;;;;;;5022674;28;20072;-68
2023/10/04 06:34:02;;;;;;;9.38;3.53;;;;;;;;;;5020947;28;20033;-68
2023/10/04 06:36:29;;;;;;;9.77;3.30;;;;;;;;;;5027700;28;20044;-68
2023/10/04 06:38:56;;;;;;;14.88;3.80;;;;;;;;;;5024530;28;20527;-69
2023/10/04 06:41:25;;;;;;;8.85;3.72;;;;;;;;;;5022429;28;20030;-69
2023/10/04 06:43:51;;;;;;;7.93;3.70;;;;;;;;;;5020358;28;20017;-68
2023/10/04 06:46:17;;;;;;;8.93;3.35;;;;;;;;;;5020076;28;20034;-68
2023/10/04 06:48:45;;;;;;;5.22;3.28;;;;;;;;;;5020520;28;20053;-73
2023/10/04 06:51:11;;;;;;;8.02;3.10;;;;;;;;;;5024939;28;20333;-68
2023/10/04 06:53:43;;;;;;;8.52;3.58;;;;;;;;;;5025377;28;20044;-68
2023/10/04 06:56:09;;;;;;;8.40;4.53;;;;;;;;;;5023068;28;20034;-68
2023/10/04 06:58:37;;;;;;;11.05;4.13;;;;;;;;;;5022021;28;20118;-69
2023/10/04 07:01:04;;;;;;;6.30;2.83;;;;;;;;;;5021230;28;20508;-69
2023/10/04 07:03:30;;;;;;;10.15;3.58;;;;;;;;;;5023263;28;20026;-68
2023/10/04 07:05:56;;;;;;;8.80;3.03;;;;;;;;;;5021973;28;20030;-68
2023/10/04 07:08:24;;;;;;;7.47;3.58;;;;;;;;;;5016904;28;20375;-68
2023/10/04 07:10:52;;;;;;;7.57;3.28;;;;;;;;;;5022489;28;20032;-67
2023/10/04 07:13:18;;;;;;;8.02;3.22;;;;;;;;;;5026218;28;20040;-69
2023/10/04 07:15:44;;;;;;;22.92;3.65;;;;;;;;;;5021680;28;20037;-69
2023/10/04 07:18:11;;;;;;;11.63;3.97;;;;;;;;;;5017503;28;20484;-69
2023/10/04 07:20:38;;;;;;;10.82;3.45;;;;;;;;;;5023042;28;20470;-68
2023/10/04 07:23:07;;;;;;;10.80;3.38;;;;;;;;;;5020538;28;20013;-68
2023/10/04 07:25:34;;;;;;;6.18;3.63;;;;;;;;;;5025802;28;20118;-69
2023/10/04 07:28:02;;;;;;;6.18;3.40;;;;;;;;;;5019668;28;20025;-68
2023/10/04 07:30:29;;;;;;;8.25;3.30;;;;;;;;;;5023012;28;20029;-69
2023/10/04 07:32:55;;;;;;;7.95;3.42;;;;;;;;;;5021340;28;20013;-68
2023/10/04 07:35:25;;;;;;;9.10;3.10;;;;;;;;;;5019830;28;20104;-68
2023/10/04 07:37:52;;;;;;;7.10;3.35;;;;;;;;;;5009424;28;20241;-69
2023/10/04 07:40:18;;;;;;;6.70;2.88;;;;;;;;;;5018185;28;20038;-69
2023/10/04 07:42:46;;;;;;;9.60;4.20;;;;;;;;;;5014352;28;20710;-70
2023/10/04 07:45:12;;;;;;;12.35;3.20;;;;;;;;;;5015498;28;20100;-70
2023/10/04 07:47:41;;;;;;;8.05;3.90;;;;;;;;;;5020770;28;20453;-70
2023/10/04 07:50:09;;;;;;;7.50;3.55;;;;;;;;;;5018124;28;20390;-69
2023/10/04 07:52:37;;;;;;;8.50;3.30;;;;;;;;;;5030779;28;20128;-70
2023/10/04 07:55:05;;;;;;;6.15;3.17;;;;;;;;;;5016807;28;20499;-70
2023/10/04 07:57:31;;;;;;;9.35;3.38;;;;;;;;;;5028445;28;20038;-70
2023/10/04 07:59:58;;;;;;;5.82;3.72;;;;;;;;;;5015004;28;20585;-70
2023/10/04 08:02:24;;;;;;;5.97;2.83;;;;;;;;;;5020436;28;20018;-70
2023/10/04 08:04:50;;;;;;;9.85;3.88;;;;;;;;;;5019901;28;20018;-70
2023/10/04 08:07:18;;;;;;;9.55;3.40;;;;;;;;;;5017447;28;20079;-70
2023/10/04 08:09:44;;;;;;;5.63;2.97;;;;;;;;;;5020719;28;20128;-70
2023/10/04 08:12:10;;;;;;;7.75;3.83;;;;;;;;;;5018448;28;20025;-70
2023/10/04 08:14:36;;;;;;;7.60;2.83;;;;;;;;;;5016568;28;20100;-70
2023/10/04 08:17:02;;;;;;;8.20;3.55;;;;;;;;;;5015691;28;20026;-69
2023/10/04 08:19:29;;;;;;;7.28;3.15;;;;;;;;;;5019565;28;20468;-69
2023/10/04 08:21:55;;;;;;;7.18;2.90;;;;;;;;;;5012503;28;20029;-69
2023/10/04 08:24:21;;;;;;;8.30;2.95;;;;;;;;;;5013134;28;20032;-70
2023/10/04 08:26:48;;;;;;;6.88;2.60;;;;;;;;;;5011892;28;20497;-69
2023/10/04 08:29:15;;;;;;;5.72;3.00;;;;;;;;;;5032161;28;20029;-70
2023/10/04 08:31:41;;;;;;;8.20;3.10;;;;;;;;;;5015019;28;20512;-69
2023/10/04 08:34:07;;;;;;;9.65;3.63;;;;;;;;;;5017809;28;20084;-68
2023/10/04 08:36:33;;;;;;;7.68;3.10;;;;;;;;;;5020087;28;20513;-69
2023/10/04 08:39:00;;;;;;;7.72;3.00;;;;;;;;;;5017272;28;20319;-69
2023/10/04 08:41:26;;;;;;;6.78;2.88;;;;;;;;;;5016417;28;20406;-72
2023/10/04 08:43:52;;;;;;;4.45;3.35;;;;;;;;;;5020075;28;20029;-68
2023/10/04 08:46:19;;;;;;;7.85;3.00;;;;;;;;;;5023330;28;20037;-69
2023/10/04 08:48:53;;;;;;;4.78;2.85;;;;;;;;;;5010483;28;20463;-67
2023/10/04 08:51:37;;;;;;;6.45;2.80;;;;;;;;;;5013108;28;20037;-69
2023/10/04 08:54:13;;;;;;;10.20;3.42;;;;;;;;;;5014395;28;20048;-69
2023/10/04 08:56:44;;;;;;;8.30;3.00;;;;;;;;;;5010141;28;20047;-68
2023/10/04 08:59:11;;;;;;;6.60;2.63;;;;;;;;;;5013412;28;20057;-68
2023/10/04 09:01:39;;;;;;;6.32;3.00;;;;;;;;;;5015491;28;20284;-69
2023/10/04 09:04:05;;;;;;;4.88;3.17;;;;;;;;;;5009966;28;20040;-68
2023/10/04 09:06:31;;;;;;;6.50;2.60;;;;;;;;;;5031587;28;20661;-68
2023/10/04 09:08:58;;;;;;;8.48;2.97;;;;;;;;;;5017071;28;20116;-68
2023/10/04 09:11:25;;;;;;;5.93;3.33;;;;;;;;;;5016248;28;20029;-69
2023/10/04 09:13:52;;;;;;;8.52;3.70;;;;;;;;;;5012687;28;20559;-68
2023/10/04 09:16:23;;;;;;;8.32;3.67;;;;;;;;;;5013930;28;20021;-69
2023/10/04 09:18:49;;;;;;;9.68;2.80;;;;;;;;;;5015198;28;20033;-68
2023/10/04 09:21:16;;;;;;;6.03;2.55;;;;;;;;;;5015398;28;20160;-69
2023/10/04 09:23:46;;;;;;;7.38;2.70;;;;;;;;;;5030792;28;20021;-68
2023/10/04 09:26:18;;;;;;;10.15;2.58;;;;;;;;;;5017209;28;20022;-68
2023/10/04 09:28:49;;;;;;;6.38;2.92;;;;;;;;;;5015774;28;20144;-68
2023/10/04 09:31:17;;;;;;;9.25;2.60;;;;;;;;;;5012775;28;20121;-70
2023/10/04 09:33:43;;;;;;;5.53;2.55;;;;;;;;;;5014344;28;20497;-68
2023/10/04 09:36:13;;;;;;;4.82;2.38;;;;;;;;;;5010839;28;20096;-69
2023/10/04 09:38:39;;;;;;;6.65;2.60;;;;;;;;;;5013164;28;20133;-68
2023/10/04 09:41:05;;;;;;;8.60;2.72;;;;;;;;;;5011212;28;20380;-68
2023/10/04 09:43:32;;;;;;;9.00;2.95;;;;;;;;;;5018524;28;20021;-74
2023/10/04 09:45:59;;;;;;;9.52;2.60;;;;;;;;;;5023000;28;20443;-73
2023/10/04 09:48:30;;;;;;;6.82;2.42;;;;;;;;;;5015784;28;20036;-68
2023/10/04 09:51:00;;;;;;;6.60;2.45;;;;;;;;;;5012324;28;20033;-69
2023/10/04 09:53:28;;;;;;;10.00;3.05;;;;;;;;;;5013065;28;20034;-69
2023/10/04 09:55:55;;;;;;;7.57;2.90;;;;;;;;;;5001799;28;20042;-69
2023/10/04 09:58:26;;;;;;;6.05;2.58;;;;;;;;;;5019627;28;20040;-72
2023/10/04 10:00:53;;;;;;;6.25;2.83;;;;;;;;;;5010427;28;20057;-69
2023/10/04 10:03:22;;;;;;;5.97;2.30;;;;;;;;;;5013350;28;20068;-71
2023/10/04 10:05:48;;;;;;;7.35;2.65;;;;;;;;;;5013354;28;20498;-70
2023/10/04 10:08:17;;;;;;;4.55;2.30;;;;;;;;;;5017965;28;20036;-70
2023/10/04 10:10:44;;;;;;;8.93;2.92;;;;;;;;;;5024513;28;20571;-71
2023/10/04 10:13:10;;;;;;;8.43;2.63;;;;;;;;;;5022836;28;20574;-70
2023/10/04 10:15:37;;;;;;;6.55;2.95;;;;;;;;;;5017648;28;20040;-70
2023/10/04 10:18:04;;;;;;;9.05;2.67;;;;;;;;;;5022159;28;20025;-69
2023/10/04 10:20:31;;;;;;;5.25;2.67;;;;;;;;;;5022019;28;20045;-70
2023/10/04 10:22:58;;;;;;;4.97;2.20;;;;;;;;;;5021320;28;20076;-70
2023/10/04 10:25:25;;;;;;;6.00;2.47;;;;;;;;;;5020371;28;20337;-71
2023/10/04 10:28:12;;;;;;;4.78;2.60;;;;;;;;;;5031658;28;20417;-69
2023/10/04 10:30:38;;;;;;;7.60;2.55;;;;;;;;;;5010554;28;20123;-70
2023/10/04 10:33:06;;;;;;;7.72;2.55;;;;;;;;;;5018147;28;20556;-68
2023/10/04 10:35:57;;;;;;;9.25;2.50;;;;;;;;;;5014571;28;20535;-69
2023/10/04 10:38:41;;;;;;;6.97;2.75;;;;;;;;;;5015077;28;20025;-68
2023/10/04 10:41:10;;;;;;;10.10;3.90;;;;;;;;;;5020824;28;20472;-72
2023/10/04 10:43:56;;;;;;;7.10;2.47;;;;;;;;;;5014285;28;20041;-71
2023/10/04 10:46:29;;;;;;;8.55;2.90;;;;;;;;;;5014632;28;20358;-70
2023/10/04 10:48:59;;;;;;;5.93;2.75;;;;;;;;;;5022981;28;20026;-68
2023/10/04 10:51:42;;;;;;;8.15;2.83;;;;;;;;;;5015965;28;20065;-69
2023/10/04 10:54:10;;;;;;;6.13;2.88;;;;;;;;;;5015711;28;20145;-70
2023/10/04 10:56:39;;;;;;;7.78;3.47;;;;;;;;;;5014222;28;20033;-69
2023/10/04 10:59:06;;;;;;;12.27;3.20;;;;;;;;;;5014725;28;20102;-69
2023/10/04 11:01:32;;;;;;;7.43;3.08;;;;;;;;;;5017528;28;20029;-71
2023/10/04 11:04:01;;;;;;;9.52;3.22;;;;;;;;;;5013152;28;20658;-71
2023/10/04 11:06:27;;;;;;;6.63;3.60;;;;;;;;;;5010828;28;20041;-70
2023/10/04 11:08:55;;;;;;;5.82;2.40;;;;;;;;;;5015532;28;20453;-69
2023/10/04 11:11:22;;;;;;;7.43;2.63;;;;;;;;;;5045459;28;20025;-70
2023/10/04 11:13:48;;;;;;;7.50;3.80;;;;;;;;;;5030717;28;20033;-69
2023/10/04 11:16:14;;;;;;;8.40;3.50;;;;;;;;;;5015034;28;20035;-70
2023/10/04 11:18:41;;;;;;;7.00;3.20;;;;;;;;;;5011276;28;20508;-70
2023/10/04 11:21:07;;;;;;;10.65;3.95;;;;;;;;;;5028496;28;20022;-70
2023/10/04 11:23:34;;;;;;;9.98;3.30;;;;;;;;;;5015711;28;20026;-70
2023/10/04 11:26:00;;;;;;;9.80;4.60;;;;;;;;;;5015199;28;20542;-70
2023/10/04 11:28:30;;;;;;;8.75;3.42;;;;;;;;;;5013397;28;20029;-69
2023/10/04 11:30:56;;;;;;;7.28;3.55;;;;;;;;;;5015566;28;20033;-70
2023/10/04 11:33:23;;;;;;;8.13;3.00;;;;;;;;;;5013125;28;20033;-69
2023/10/04 11:35:49;;;;;;;10.40;4.55;;;;;;;;;;5015659;28;20955;-70
2023/10/04 11:38:19;;;;;;;7.15;2.85;;;;;;;;;;5016112;28;20351;-70
2023/10/04 11:40:49;;;;;;;7.25;3.00;;;;;;;;;;5033950;28;20096;-70
2023/10/04 11:43:16;;;;;;;5.90;3.05;;;;;;;;;;5021121;28;20033;-69
2023/10/04 11:45:42;;;;;;;7.32;2.45;;;;;;;;;;5016385;28;20017;-69
2023/10/04 11:48:10;;;;;;;3.70;3.00;;;;;;;;;;5021771;28;20021;-69
2023/10/04 11:50:46;;;;;;;7.22;3.08;;;;;;;;;;5027054;28;20033;-70
2023/10/04 11:53:13;;;;;;;7.95;2.60;;;;;;;;;;5021028;28;20018;-70
2023/10/04 11:55:39;;;;;;;11.07;4.50;;;;;;;;;;5017963;28;20033;-68
2023/10/04 11:58:06;;;;;;;12.80;6.45;;;;;;;;;;5016365;28;20030;-69
2023/10/04 12:00:32;;;;;;;16.08;8.30;;;;;;;;;;5018210;28;20044;-70
2023/10/04 12:03:02;;;;;;;6.65;3.78;;;;;;;;;;5018135;28;20498;-69
2023/10/04 12:05:28;;;;;;;5.97;2.80;;;;;;;;;;5017613;28;20029;-68
2023/10/04 12:07:58;;;;;;;11.88;2.88;;;;;;;;;;5006886;28;21129;-69
2023/10/04 12:10:25;;;;;;;4.10;2.60;;;;;;;;;;5015335;28;20398;-75
2023/10/04 12:12:57;;;;;;;5.13;2.97;;;;;;;;;;5016588;28;20178;-75
2023/10/04 12:15:24;;;;;;;7.28;4.70;;;;;;;;;;5017969;28;20497;-72
2023/10/04 12:17:50;;;;;;;9.68;3.42;;;;;;;;;;5012387;28;20193;-74
2023/10/04 12:20:20;;;;;;;15.30;3.03;;;;;;;;;;5006589;28;20114;-76
2023/10/04 12:22:47;;;;;;;7.70;3.70;;;;;;;;;;5012214;28;20036;-74
2023/10/04 12:25:13;;;;;;;7.68;2.88;;;;;;;;;;5012008;28;20030;-74
2023/10/04 12:27:39;;;;;;;6.43;2.88;;;;;;;;;;5011898;28;20120;-74
2023/10/04 12:30:06;;;;;;;8.07;2.40;;;;;;;;;;5010833;28;20033;-75
2023/10/04 12:32:32;;;;;;;5.30;2.60;;;;;;;;;;5013284;28;20025;-75
2023/10/04 12:34:59;;;;;;;9.45;2.45;;;;;;;;;;5010551;28;20388;-73
2023/10/04 12:37:28;;;;;;;5.05;2.90;;;;;;;;;;5012212;28;20618;-74
2023/10/04 12:39:56;;;;;;;6.30;3.15;;;;;;;;;;5012691;28;20057;-73
2023/10/04 12:42:22;;;;;;;4.03;2.35;;;;;;;;;;5016201;28;20021;-74
2023/10/04 12:44:48;;;;;;;6.90;2.95;;;;;;;;;;5014521;28;20025;-73
2023/10/04 12:47:14;;;;;;;9.30;3.20;;;;;;;;;;5014173;28;20179;-74
2023/10/04 12:49:43;;;;;;;7.30;2.85;;;;;;;;;;5011866;28;20033;-75
2023/10/04 12:52:10;;;;;;;6.45;2.80;;;;;;;;;;5012224;28;20061;-73
2023/10/04 12:54:36;;;;;;;9.57;3.15;;;;;;;;;;5012063;28;20029;-73
2023/10/04 12:57:03;;;;;;;5.10;2.75;;;;;;;;;;5011862;28;20026;-73
2023/10/04 12:59:29;;;;;;;8.23;3.10;;;;;;;;;;5012925;28;20033;-73
2023/10/04 13:01:56;;;;;;;6.22;3.08;;;;;;;;;;5011892;28;20087;-74
2023/10/04 13:04:22;;;;;;;9.32;3.92;;;;;;;;;;5011068;28;20025;-73
2023/10/04 13:06:48;;;;;;;8.02;2.45;;;;;;;;;;5013475;28;20025;-75
2023/10/04 13:09:19;;;;;;;5.90;2.72;;;;;;;;;;5013740;28;20120;-76
2023/10/04 13:11:46;;;;;;;4.78;2.97;;;;;;;;;;5016551;28;20670;-75
2023/10/04 13:14:13;;;;;;;6.18;2.70;;;;;;;;;;5013973;28;20029;-74
2023/10/04 13:16:39;;;;;;;7.38;3.22;;;;;;;;;;5009872;28;20034;-75
2023/10/04 13:19:05;;;;;;;6.53;3.08;;;;;;;;;;5013396;28;20025;-75
2023/10/04 13:21:31;;;;;;;6.10;3.45;;;;;;;;;;5011092;28;20394;-75
2023/10/04 13:23:57;;;;;;;6.55;2.45;;;;;;;;;;5011654;28;20029;-75
2023/10/04 13:26:24;;;;;;;13.35;3.63;;;;;;;;;;5009162;28;20036;-75
2023/10/04 13:28:50;;;;;;;10.20;3.03;;;;;;;;;;5008829;28;20031;-75
2023/10/04 13:31:16;;;;;;;9.02;3.08;;;;;;;;;;5007763;28;20039;-75
2023/10/04 13:33:43;;;;;;;7.32;2.75;;;;;;;;;;5014981;28;20783;-75
2023/10/04 13:36:09;;;;;;;5.50;2.63;;;;;;;;;;5011657;28;20041;-74
2023/10/04 13:38:36;;;;;;;6.25;2.58;;;;;;;;;;5012040;28;20030;-75
2023/10/04 13:41:02;;;;;;;8.57;2.72;;;;;;;;;;5009573;28;20046;-75
2023/10/04 13:43:30;;;;;;;8.15;2.80;;;;;;;;;;5010505;28;20030;-76
2023/10/04 13:45:56;;;;;;;7.45;3.85;;;;;;;;;;5017908;28;20025;-75
2023/10/04 13:48:22;;;;;;;15.10;7.47;;;;;;;;;;5009506;28;20029;-75
2023/10/04 13:50:49;;;;;;;11.02;5.88;;;;;;;;;;5009738;28;20033;-76
2023/10/04 13:53:17;;;;;;;10.77;7.55;;;;;;;;;;5010189;28;21674;-76
2023/10/04 13:55:44;;;;;;;12.50;7.43;;;;;;;;;;5006710;28;20644;-76
2023/10/04 13:58:14;;;;;;;10.07;7.22;;;;;;;;;;5009465;28;20079;-75
2023/10/04 14:00:46;;;;;;;8.40;3.92;;;;;;;;;;5009359;28;20103;-76
2023/10/04 14:03:13;;;;;;;8.55;3.15;;;;;;;;;;5009959;28;20017;-75
2023/10/04 14:05:39;;;;;;;5.00;2.45;;;;;;;;;;5012432;28;20033;-76
2023/10/04 14:08:09;;;;;;;6.88;3.03;;;;;;;;;;5024664;28;20053;-76
2023/10/04 14:10:36;;;;;;;3.58;2.42;;;;;;;;;;5005881;28;20021;-76
2023/10/04 14:13:02;;;;;;;3.60;2.40;;;;;;;;;;5022987;28;20032;-75
2023/10/04 14:15:29;;;;;;;10.80;2.95;;;;;;;;;;5013026;28;20113;-75
2023/10/04 14:17:56;;;;;;;6.38;3.25;;;;;;;;;;5016300;28;20096;-76
2023/10/04 14:20:22;;;;;;;5.60;2.67;;;;;;;;;;5016849;28;20033;-76
2023/10/04 14:22:51;;;;;;;7.57;2.58;;;;;;;;;;5015842;28;20125;-76
2023/10/04 14:25:17;;;;;;;5.43;2.50;;;;;;;;;;5014330;28;20098;-75
2023/10/04 14:27:44;;;;;;;6.03;3.13;;;;;;;;;;5015731;28;20054;-76
2023/10/04 14:30:15;;;;;;;5.10;2.42;;;;;;;;;;5013302;28;20036;-75
2023/10/04 14:32:41;;;;;;;7.75;2.88;;;;;;;;;;5013073;28;20149;-75
2023/10/04 14:35:08;;;;;;;7.75;2.97;;;;;;;;;;5016141;28;20451;-75
2023/10/04 14:37:36;;;;;;;5.38;2.53;;;;;;;;;;5017460;28;20026;-75
2023/10/04 14:40:13;;;;;;;5.88;3.63;;;;;;;;;;5016720;28;20577;-75
2023/10/04 14:42:40;;;;;;;3.63;2.65;;;;;;;;;;5019045;28;20132;-75
2023/10/04 14:45:07;;;;;;;5.13;2.85;;;;;;;;;;5015494;28;20115;-75
2023/10/04 14:47:34;;;;;;;5.78;2.90;;;;;;;;;;5020145;28;20117;-74